createdAt,value
2019-02-27T00:00:45.760Z,27.64
2019-02-27T00:01:49.691Z,27.56
2019-02-27T00:02:45.760Z,27.18
2019-02-27T00:03:45.816Z,28.06
2019-02-27T00:04:45.836Z,27.66
2019-02-27T00:05:45.774Z,27.57
2019-02-27T00:06:47.846Z,27.66
2019-02-27T00:07:45.846Z,28.00
2019-02-27T00:08:45.779Z,27.41
2019-02-27T00:09:45.791Z,28.01
2019-02-27T00:10:45.793Z,28.05
2019-02-27T00:11:46.721Z,27.51
2019-02-27T00:12:45.799Z,28.06
2019-02-27T00:13:45.785Z,27.58
2019-02-27T00:14:45.786Z,27.62
2019-02-27T00:15:45.832Z,27.54
2019-02-27T00:16:45.805Z,27.39
2019-02-27T00:17:45.847Z,27.44
2019-02-27T00:18:45.835Z,27.91
2019-02-27T00:19:45.788Z,27.50
2019-02-27T00:20:45.799Z,27.69
2019-02-27T00:21:45.810Z,27.51
2019-02-27T00:22:47.867Z,27.68
2019-02-27T00:23:45.800Z,27.73
2019-02-27T00:24:45.847Z,27.07
2019-02-27T00:25:45.846Z,27.70
2019-02-27T00:26:45.872Z,27.42
2019-02-27T00:27:48.888Z,27.53
2019-02-27T00:28:45.856Z,26.96
2019-02-27T00:29:45.806Z,27.56
2019-02-27T00:30:45.850Z,27.78
2019-02-27T00:31:46.150Z,27.57
2019-02-27T00:32:45.855Z,27.47
2019-02-27T00:33:45.838Z,27.50
2019-02-27T00:34:45.803Z,27.22
2019-02-27T00:35:45.827Z,27.07
2019-02-27T00:36:45.860Z,27.26
2019-02-27T00:37:45.820Z,27.36
2019-02-27T00:38:45.868Z,27.36
2019-02-27T00:39:45.813Z,27.36
2019-02-27T00:40:45.858Z,27.21
2019-02-27T00:41:46.054Z,27.55
2019-02-27T00:42:45.871Z,27.07
2019-02-27T00:43:45.836Z,27.70
2019-02-27T00:44:45.835Z,27.03
2019-02-27T00:45:45.850Z,27.37
2019-02-27T00:46:46.501Z,27.34
2019-02-27T00:47:45.838Z,26.84
2019-02-27T00:48:45.887Z,27.27
2019-02-27T00:49:45.820Z,27.54
2019-02-27T00:50:45.875Z,27.43
2019-02-27T00:51:45.897Z,27.57
2019-02-27T00:52:45.824Z,27.39
2019-02-27T00:53:45.859Z,26.86
2019-02-27T00:54:45.849Z,26.75
2019-02-27T00:55:45.844Z,27.41
2019-02-27T00:56:45.842Z,27.18
2019-02-27T00:57:45.840Z,27.19
2019-02-27T00:58:45.864Z,27.13
2019-02-27T00:59:45.852Z,27.31
2019-02-27T01:00:45.851Z,27.18
2019-02-27T01:01:47.525Z,26.90
2019-02-27T01:02:45.884Z,27.07
2019-02-27T01:03:45.875Z,26.72
2019-02-27T01:04:45.880Z,27.57
2019-02-27T01:05:45.874Z,26.78
2019-02-27T01:06:47.565Z,27.12
2019-02-27T01:07:45.849Z,27.44
2019-02-27T01:08:45.902Z,26.71
2019-02-27T01:09:45.873Z,27.46
2019-02-27T01:10:45.934Z,27.08
2019-02-27T01:11:45.890Z,27.17
2019-02-27T01:12:45.894Z,26.95
2019-02-27T01:13:45.859Z,27.50
2019-02-27T01:14:45.903Z,26.79
2019-02-27T01:15:45.871Z,27.25
2019-02-27T01:16:47.735Z,27.11
2019-02-27T01:17:45.874Z,26.83
2019-02-27T01:18:45.906Z,27.03
2019-02-27T01:19:45.879Z,27.39
2019-02-27T01:20:46.594Z,26.99
2019-02-27T01:21:45.909Z,26.78
2019-02-27T01:22:45.934Z,27.22
2019-02-27T01:23:45.899Z,27.05
2019-02-27T01:24:49.961Z,27.03
2019-02-27T01:25:45.871Z,26.60
2019-02-27T01:26:45.906Z,27.12
2019-02-27T01:27:45.921Z,27.25
2019-02-27T01:28:45.934Z,27.12
2019-02-27T01:29:45.933Z,27.45
2019-02-27T01:30:45.926Z,27.44
2019-02-27T01:31:45.904Z,26.98
2019-02-27T01:32:45.932Z,27.11
2019-02-27T01:33:45.885Z,27.01
2019-02-27T01:34:45.970Z,27.05
2019-02-27T01:35:45.892Z,27.02
2019-02-27T01:36:45.934Z,27.01
2019-02-27T01:37:45.934Z,27.12
2019-02-27T01:38:45.938Z,27.40
2019-02-27T01:39:45.892Z,27.00
2019-02-27T01:40:45.907Z,26.98
2019-02-27T01:41:45.961Z,27.00
2019-02-27T01:42:45.914Z,26.69
2019-02-27T01:43:45.946Z,26.96
2019-02-27T01:44:46.663Z,27.04
2019-02-27T01:45:45.954Z,26.97
2019-02-27T01:46:45.951Z,26.76
2019-02-27T01:47:45.963Z,27.13
2019-02-27T01:48:45.905Z,27.02
2019-02-27T01:49:48.960Z,26.88
2019-02-27T01:50:45.959Z,27.09
2019-02-27T01:51:45.956Z,27.29
2019-02-27T01:52:45.915Z,26.90
2019-02-27T01:53:45.953Z,26.72
2019-02-27T01:54:46.085Z,26.84
2019-02-27T01:55:45.943Z,27.29
2019-02-27T01:56:45.965Z,26.92
2019-02-27T01:57:45.926Z,26.59
2019-02-27T01:58:45.928Z,26.55
2019-02-27T01:59:50.042Z,26.98
2019-02-27T02:00:45.976Z,26.84
2019-02-27T02:01:45.923Z,26.96
2019-02-27T02:02:45.937Z,26.90
2019-02-27T02:03:47.459Z,26.84
2019-02-27T02:04:45.956Z,27.00
2019-02-27T02:05:45.958Z,26.94
2019-02-27T02:06:45.932Z,26.57
2019-02-27T02:07:45.980Z,26.50
2019-02-27T02:08:48.206Z,26.82
2019-02-27T02:09:45.935Z,26.86
2019-02-27T02:10:45.962Z,26.99
2019-02-27T02:11:45.928Z,26.89
2019-02-27T02:12:45.947Z,26.78
2019-02-27T02:13:48.175Z,26.98
2019-02-27T02:14:45.941Z,27.06
2019-02-27T02:15:45.949Z,26.97
2019-02-27T02:16:46.000Z,26.61
2019-02-27T02:17:46.034Z,26.68
2019-02-27T02:18:48.230Z,27.09
2019-02-27T02:19:45.990Z,26.48
2019-02-27T02:20:46.003Z,26.42
2019-02-27T02:21:46.023Z,27.00
2019-02-27T02:22:46.039Z,27.02
2019-02-27T02:23:47.810Z,26.75
2019-02-27T02:24:46.050Z,27.16
2019-02-27T02:25:46.090Z,26.45
2019-02-27T02:26:46.077Z,26.44
2019-02-27T02:27:46.102Z,26.53
2019-02-27T02:28:48.328Z,26.81
2019-02-27T02:29:46.149Z,26.92
2019-02-27T02:30:46.180Z,26.89
2019-02-27T02:31:46.157Z,26.78
2019-02-27T02:32:52.022Z,26.77
2019-02-27T02:33:46.219Z,26.55
2019-02-27T02:34:46.156Z,26.73
2019-02-27T02:35:49.755Z,26.33
2019-02-27T02:36:46.197Z,26.48
2019-02-27T02:37:46.151Z,26.72
2019-02-27T02:38:46.227Z,26.81
2019-02-27T02:39:46.159Z,26.79
2019-02-27T02:40:46.157Z,26.58
2019-02-27T02:41:48.007Z,27.01
2019-02-27T02:42:46.164Z,26.35
2019-02-27T02:43:46.216Z,26.41
2019-02-27T02:44:46.167Z,26.53
2019-02-27T02:45:46.167Z,26.34
2019-02-27T02:46:46.406Z,27.01
2019-02-27T02:47:46.189Z,26.51
2019-02-27T02:48:46.186Z,26.64
2019-02-27T02:49:46.220Z,26.59
2019-02-27T02:50:46.208Z,26.92
2019-02-27T02:51:46.202Z,26.61
2019-02-27T02:52:46.179Z,26.43
2019-02-27T02:53:48.593Z,26.72
2019-02-27T02:54:46.225Z,26.45
2019-02-27T02:55:48.836Z,26.35
2019-02-27T02:56:46.241Z,26.56
2019-02-27T02:57:46.195Z,26.57
2019-02-27T02:58:48.400Z,26.44
2019-02-27T02:59:46.234Z,26.58
2019-02-27T03:00:46.184Z,26.60
2019-02-27T03:01:49.110Z,26.34
2019-02-27T03:02:46.197Z,26.92
2019-02-27T03:03:46.186Z,26.76
2019-02-27T03:04:48.353Z,26.55
2019-02-27T03:05:46.227Z,26.89
2019-02-27T03:06:46.241Z,26.61
2019-02-27T03:07:46.203Z,26.30
2019-02-27T03:08:46.205Z,26.67
2019-02-27T03:09:46.200Z,26.79
2019-02-27T03:10:46.227Z,26.67
2019-02-27T03:11:46.259Z,26.51
2019-02-27T03:12:46.195Z,26.35
2019-02-27T03:13:46.220Z,26.69
2019-02-27T03:14:46.206Z,26.42
2019-02-27T03:15:46.219Z,26.57
2019-02-27T03:16:46.270Z,26.68
2019-02-27T03:17:46.227Z,26.69
2019-02-27T03:18:46.290Z,26.36
2019-02-27T03:19:46.232Z,26.52
2019-02-27T03:20:51.974Z,26.43
2019-02-27T03:21:46.218Z,26.39
2019-02-27T03:22:46.235Z,26.41
2019-02-27T03:23:51.016Z,26.33
2019-02-27T03:24:46.258Z,26.40
2019-02-27T03:25:46.215Z,26.49
2019-02-27T03:26:51.862Z,26.65
2019-02-27T03:27:46.262Z,26.43
2019-02-27T03:28:46.241Z,26.80
2019-02-27T03:29:51.966Z,26.83
2019-02-27T03:30:46.226Z,26.62
2019-02-27T03:31:46.235Z,26.28
2019-02-27T03:32:46.222Z,26.60
2019-02-27T03:33:46.259Z,26.80
2019-02-27T03:34:50.442Z,26.64
2019-02-27T03:35:46.228Z,26.28
2019-02-27T03:36:46.275Z,26.55
2019-02-27T03:37:48.582Z,26.37
2019-02-27T03:38:46.245Z,26.53
2019-02-27T03:39:46.297Z,26.57
2019-02-27T03:40:48.137Z,26.25
2019-02-27T03:41:46.237Z,26.35
2019-02-27T03:42:46.242Z,26.45
2019-02-27T03:43:46.826Z,26.19
2019-02-27T03:44:46.241Z,26.32
2019-02-27T03:45:46.222Z,26.37
2019-02-27T03:46:46.246Z,26.33
2019-02-27T03:47:51.721Z,26.29
2019-02-27T03:48:46.256Z,26.17
2019-02-27T03:49:46.336Z,26.57
2019-02-27T03:50:49.487Z,26.64
2019-02-27T03:51:46.250Z,26.35
2019-02-27T03:52:46.244Z,26.20
2019-02-27T03:53:46.416Z,26.29
2019-02-27T03:54:48.423Z,26.63
2019-02-27T03:55:46.254Z,26.56
2019-02-27T03:56:46.308Z,26.30
2019-02-27T03:57:46.310Z,26.30
2019-02-27T03:58:46.258Z,26.74
2019-02-27T03:59:46.282Z,26.43
2019-02-27T04:00:46.258Z,26.52
2019-02-27T04:01:46.253Z,26.37
2019-02-27T04:02:46.256Z,26.78
2019-02-27T04:03:46.312Z,26.59
2019-02-27T04:04:46.278Z,26.57
2019-02-27T04:05:46.407Z,26.80
2019-02-27T04:06:46.315Z,26.37
2019-02-27T04:07:46.267Z,26.45
2019-02-27T04:08:46.312Z,26.37
2019-02-27T04:09:46.284Z,26.42
2019-02-27T04:10:46.271Z,26.49
2019-02-27T04:11:46.272Z,26.44
2019-02-27T04:12:51.412Z,26.41
2019-02-27T04:13:46.283Z,26.83
2019-02-27T04:14:46.276Z,26.62
2019-02-27T04:15:46.273Z,26.48
2019-02-27T04:16:46.321Z,26.95
2019-02-27T04:17:51.755Z,26.38
2019-02-27T04:18:46.274Z,26.82
2019-02-27T04:19:46.302Z,26.64
2019-02-27T04:20:49.747Z,26.80
2019-02-27T04:21:46.288Z,26.44
2019-02-27T04:22:46.344Z,26.85
2019-02-27T04:23:49.077Z,26.96
2019-02-27T04:24:46.306Z,26.65
2019-02-27T04:25:46.296Z,26.78
2019-02-27T04:26:46.282Z,26.71
2019-02-27T04:27:46.341Z,26.50
2019-02-27T04:28:46.307Z,26.49
2019-02-27T04:29:46.341Z,26.62
2019-02-27T04:30:51.016Z,26.39
2019-02-27T04:31:46.309Z,26.88
2019-02-27T04:32:48.736Z,26.52
2019-02-27T04:33:46.292Z,26.63
2019-02-27T04:34:46.366Z,26.42
2019-02-27T04:35:46.337Z,26.95
2019-02-27T04:36:47.282Z,26.96
2019-02-27T04:37:46.306Z,26.87
2019-02-27T04:38:46.311Z,26.50
2019-02-27T04:39:46.308Z,26.86
2019-02-27T04:40:46.323Z,26.90
2019-02-27T04:41:46.377Z,26.39
2019-02-27T04:42:46.353Z,26.52
2019-02-27T04:43:46.314Z,26.56
2019-02-27T04:44:46.318Z,26.43
2019-02-27T04:45:46.878Z,27.09
2019-02-27T04:46:46.324Z,26.55
2019-02-27T04:47:46.323Z,26.50
2019-02-27T04:48:46.335Z,26.85
2019-02-27T04:49:46.332Z,26.80
2019-02-27T04:50:46.354Z,26.34
2019-02-27T04:51:48.103Z,26.54
2019-02-27T04:52:46.388Z,26.99
2019-02-27T04:53:46.368Z,27.21
2019-02-27T04:54:46.426Z,26.90
2019-02-27T04:55:47.976Z,27.00
2019-02-27T04:56:46.420Z,26.97
2019-02-27T04:57:46.386Z,26.84
2019-02-27T04:58:46.371Z,26.88
2019-02-27T04:59:46.433Z,27.19
2019-02-27T05:00:46.404Z,26.58
2019-02-27T05:01:46.385Z,27.22
2019-02-27T05:02:46.392Z,27.30
2019-02-27T05:03:46.370Z,26.71
2019-02-27T05:04:46.433Z,27.45
2019-02-27T05:05:46.425Z,27.07
2019-02-27T05:06:47.382Z,27.45
2019-02-27T05:07:46.421Z,27.29
2019-02-27T05:08:46.385Z,27.72
2019-02-27T05:09:46.381Z,26.91
2019-02-27T05:10:46.394Z,27.62
2019-02-27T05:11:48.267Z,27.67
2019-02-27T05:12:48.206Z,27.78
2019-02-27T05:13:46.381Z,27.71
2019-02-27T05:14:46.395Z,27.56
2019-02-27T05:15:46.418Z,27.28
2019-02-27T05:16:47.206Z,27.29
2019-02-27T05:17:46.391Z,27.72
2019-02-27T05:18:46.444Z,27.78
2019-02-27T05:19:46.397Z,27.84
2019-02-27T05:20:46.409Z,27.60
2019-02-27T05:21:46.506Z,28.08
2019-02-27T05:22:46.389Z,27.64
2019-02-27T05:23:46.401Z,27.44
2019-02-27T05:24:46.394Z,27.96
2019-02-27T05:25:46.445Z,27.60
2019-02-27T05:26:46.445Z,28.00
2019-02-27T05:27:46.401Z,27.95
2019-02-27T05:28:46.402Z,27.49
2019-02-27T05:29:46.402Z,27.96
2019-02-27T05:30:46.471Z,28.11
2019-02-27T05:31:46.481Z,28.24
2019-02-27T05:32:46.460Z,28.12
2019-02-27T05:33:46.455Z,28.13
2019-02-27T05:34:49.540Z,28.16
2019-02-27T05:35:46.405Z,28.40
2019-02-27T05:36:46.424Z,27.96
2019-02-27T05:37:46.426Z,27.78
2019-02-27T05:38:46.422Z,28.43
2019-02-27T05:39:50.677Z,28.17
2019-02-27T05:40:46.419Z,28.44
2019-02-27T05:41:46.432Z,27.91
2019-02-27T05:42:46.427Z,27.83
2019-02-27T05:43:48.575Z,27.96
2019-02-27T05:44:46.425Z,28.26
2019-02-27T05:45:46.422Z,28.46
2019-02-27T05:46:46.446Z,27.97
2019-02-27T05:47:46.433Z,28.31
2019-02-27T05:48:46.440Z,28.45
2019-02-27T05:49:46.431Z,28.09
2019-02-27T05:50:46.421Z,28.22
2019-02-27T05:51:46.469Z,28.11
2019-02-27T05:52:48.793Z,28.19
2019-02-27T05:53:46.426Z,28.41
2019-02-27T05:54:46.431Z,28.41
2019-02-27T05:55:46.437Z,28.00
2019-02-27T05:56:47.141Z,28.41
2019-02-27T05:57:46.465Z,28.05
2019-02-27T05:58:46.503Z,27.78
2019-02-27T05:59:46.442Z,27.98
2019-02-27T06:00:46.450Z,28.10
2019-02-27T06:01:46.440Z,28.80
2019-02-27T06:02:46.480Z,28.19
2019-02-27T06:03:46.449Z,28.45
2019-02-27T06:04:46.489Z,28.37
2019-02-27T06:05:49.614Z,28.58
2019-02-27T06:06:46.447Z,27.86
2019-02-27T06:07:46.485Z,28.20
2019-02-27T06:08:46.450Z,28.45
2019-02-27T06:09:46.520Z,27.96
2019-02-27T06:10:46.463Z,28.14
2019-02-27T06:11:46.490Z,27.97
2019-02-27T06:12:46.466Z,28.53
2019-02-27T06:13:47.608Z,27.93
2019-02-27T06:14:46.472Z,28.42
2019-02-27T06:15:46.475Z,28.54
2019-02-27T06:16:46.462Z,27.98
2019-02-27T06:17:49.046Z,28.33
2019-02-27T06:18:46.486Z,28.46
2019-02-27T06:19:46.520Z,27.94
2019-02-27T06:20:46.474Z,27.96
2019-02-27T06:21:46.471Z,28.51
2019-02-27T06:22:46.476Z,28.03
2019-02-27T06:23:46.498Z,27.89
2019-02-27T06:24:46.554Z,28.59
2019-02-27T06:25:46.481Z,27.74
2019-02-27T06:26:46.471Z,28.00
2019-02-27T06:27:46.484Z,27.77
2019-02-27T06:28:46.518Z,28.31
2019-02-27T06:29:46.475Z,28.35
2019-02-27T06:30:46.498Z,27.95
2019-02-27T06:31:46.515Z,28.08
2019-02-27T06:32:46.481Z,27.62
2019-02-27T06:33:46.482Z,28.01
2019-02-27T06:34:46.501Z,28.32
2019-02-27T06:35:46.551Z,28.22
2019-02-27T06:36:46.485Z,27.70
2019-02-27T06:37:50.500Z,28.53
2019-02-27T06:38:46.537Z,28.32
2019-02-27T06:39:46.490Z,27.61
2019-02-27T06:40:46.491Z,27.57
2019-02-27T06:41:47.389Z,27.42
2019-02-27T06:42:46.548Z,27.54
2019-02-27T06:43:46.490Z,28.08
2019-02-27T06:44:46.547Z,27.83
2019-02-27T06:45:46.658Z,27.72
2019-02-27T06:46:46.503Z,27.48
2019-02-27T06:47:46.505Z,27.38
2019-02-27T06:48:46.503Z,27.83
2019-02-27T06:49:49.018Z,27.66
2019-02-27T06:50:46.519Z,28.13
2019-02-27T06:51:46.519Z,27.90
2019-02-27T06:52:46.527Z,27.57
2019-02-27T06:53:46.509Z,27.92
2019-02-27T06:54:46.528Z,28.24
2019-02-27T06:55:46.521Z,28.19
2019-02-27T06:56:46.526Z,27.57
2019-02-27T06:57:46.505Z,27.40
2019-02-27T06:58:47.544Z,27.54
2019-02-27T06:59:46.520Z,28.18
2019-02-27T07:00:46.587Z,27.92
2019-02-27T07:01:47.506Z,27.19
2019-02-27T07:02:46.527Z,28.17
2019-02-27T07:03:46.551Z,27.93
2019-02-27T07:04:46.527Z,28.05
2019-02-27T07:05:48.284Z,27.72
2019-02-27T07:06:46.543Z,27.57
2019-02-27T07:07:46.545Z,28.12
2019-02-27T07:08:46.522Z,27.43
2019-02-27T07:09:46.520Z,27.66
2019-02-27T07:10:46.538Z,27.92
2019-02-27T07:11:48.787Z,27.83
2019-02-27T07:12:46.538Z,28.13
2019-02-27T07:13:46.589Z,27.90
2019-02-27T07:14:46.530Z,27.24
2019-02-27T07:15:48.298Z,27.75
2019-02-27T07:16:46.552Z,28.12
2019-02-27T07:17:46.534Z,27.41
2019-02-27T07:18:46.600Z,27.70
2019-02-27T07:19:47.443Z,27.91
2019-02-27T07:20:46.539Z,27.75
2019-02-27T07:21:46.583Z,27.45
2019-02-27T07:22:46.777Z,27.85
2019-02-27T07:23:46.547Z,27.32
2019-02-27T07:24:46.540Z,28.06
2019-02-27T07:25:46.586Z,27.76
2019-02-27T07:26:47.562Z,27.89
2019-02-27T07:27:46.597Z,27.71
2019-02-27T07:28:46.548Z,27.22
2019-02-27T07:29:46.579Z,27.98
2019-02-27T07:30:46.556Z,27.24
2019-02-27T07:31:46.590Z,28.00
2019-02-27T07:32:46.571Z,27.80
2019-02-27T07:33:46.626Z,27.43
2019-02-27T07:34:46.726Z,27.94
2019-02-27T07:35:46.611Z,27.17
2019-02-27T07:36:46.621Z,27.49
2019-02-27T07:37:48.048Z,27.54
2019-02-27T07:38:46.552Z,27.69
2019-02-27T07:39:46.558Z,27.59
2019-02-27T07:40:46.581Z,27.55
2019-02-27T07:41:46.566Z,27.10
2019-02-27T07:42:46.597Z,27.42
2019-02-27T07:43:46.604Z,27.54
2019-02-27T07:44:46.610Z,27.35
2019-02-27T07:45:46.563Z,27.85
2019-02-27T07:46:46.579Z,27.53
2019-02-27T07:47:46.580Z,27.38
2019-02-27T07:48:46.620Z,27.76
2019-02-27T07:49:48.231Z,27.33
2019-02-27T07:50:49.137Z,27.45
2019-02-27T07:51:48.486Z,27.53
2019-02-27T07:52:46.637Z,26.95
2019-02-27T07:53:46.580Z,27.42
2019-02-27T07:54:46.617Z,26.90
2019-02-27T07:55:47.433Z,26.99
2019-02-27T07:56:46.624Z,26.98
2019-02-27T07:57:46.599Z,27.70
2019-02-27T07:58:46.586Z,27.00
2019-02-27T07:59:46.634Z,27.00
2019-02-27T08:00:47.163Z,26.73
2019-02-27T08:01:46.562Z,27.33
2019-02-27T08:02:46.604Z,27.17
2019-02-27T08:03:46.644Z,27.31
2019-02-27T08:04:46.636Z,27.32
2019-02-27T08:05:46.640Z,27.04
2019-02-27T08:06:46.614Z,26.83
2019-02-27T08:07:49.082Z,27.27
2019-02-27T08:08:46.656Z,27.28
2019-02-27T08:09:46.661Z,26.65
2019-02-27T08:10:46.660Z,26.93
2019-02-27T08:11:47.288Z,26.76
2019-02-27T08:12:46.624Z,27.18
2019-02-27T08:13:46.656Z,27.00
2019-02-27T08:14:47.607Z,26.73
2019-02-27T08:15:46.665Z,26.61
2019-02-27T08:16:47.998Z,27.34
2019-02-27T08:17:46.666Z,26.79
2019-02-27T08:18:46.636Z,26.93
2019-02-27T08:19:46.626Z,26.88
2019-02-27T08:20:48.112Z,26.85
2019-02-27T08:21:46.668Z,27.19
2019-02-27T08:22:46.689Z,26.70
2019-02-27T08:23:46.700Z,26.85
2019-02-27T08:24:46.687Z,26.73
2019-02-27T08:25:46.630Z,26.64
2019-02-27T08:26:46.625Z,26.71
2019-02-27T08:27:46.674Z,26.81
2019-02-27T08:28:46.644Z,26.30
2019-02-27T08:29:46.639Z,26.64
2019-02-27T08:30:46.674Z,27.18
2019-02-27T08:31:46.688Z,26.55
2019-02-27T08:32:46.702Z,26.58
2019-02-27T08:33:46.659Z,26.66
2019-02-27T08:34:46.686Z,26.26
2019-02-27T08:35:46.669Z,26.48
2019-02-27T08:36:46.690Z,26.46
2019-02-27T08:37:46.668Z,26.21
2019-02-27T08:38:46.651Z,26.23
2019-02-27T08:39:46.650Z,26.86
2019-02-27T08:40:46.703Z,26.49
2019-02-27T08:41:46.706Z,26.16
2019-02-27T08:42:46.689Z,26.67
2019-02-27T08:43:46.659Z,26.81
2019-02-27T08:44:46.699Z,26.65
2019-02-27T08:45:46.700Z,26.44
2019-02-27T08:46:46.652Z,26.15
2019-02-27T08:47:46.691Z,26.50
2019-02-27T08:48:49.933Z,26.14
2019-02-27T08:49:46.714Z,26.24
2019-02-27T08:50:46.660Z,26.15
2019-02-27T08:51:46.665Z,26.93
2019-02-27T08:52:50.100Z,26.65
2019-02-27T08:53:46.713Z,26.87
2019-02-27T08:54:46.662Z,26.90
2019-02-27T08:55:46.680Z,26.01
2019-02-27T08:56:47.234Z,26.42
2019-02-27T08:57:46.673Z,26.60
2019-02-27T08:58:46.685Z,26.61
2019-02-27T08:59:46.704Z,26.01
2019-02-27T09:00:47.487Z,26.66
2019-02-27T09:01:46.721Z,26.45
2019-02-27T09:02:46.675Z,25.96
2019-02-27T09:03:46.704Z,25.91
2019-02-27T09:04:46.685Z,26.14
2019-02-27T09:05:46.677Z,26.59
2019-02-27T09:06:46.680Z,25.92
2019-02-27T09:07:46.685Z,25.81
2019-02-27T09:08:46.699Z,25.83
2019-02-27T09:09:51.233Z,25.79
2019-02-27T09:10:46.692Z,26.18
2019-02-27T09:11:46.720Z,26.30
2019-02-27T09:12:48.815Z,25.82
2019-02-27T09:13:46.711Z,26.36
2019-02-27T09:14:46.724Z,26.17
2019-02-27T09:15:46.693Z,25.80
2019-02-27T09:16:46.698Z,26.32
2019-02-27T09:17:46.698Z,26.32
2019-02-27T09:18:46.711Z,26.61
2019-02-27T09:19:46.707Z,26.07
2019-02-27T09:20:46.708Z,26.41
2019-02-27T09:21:46.759Z,25.96
2019-02-27T09:22:46.700Z,26.06
2019-02-27T09:23:46.723Z,26.49
2019-02-27T09:24:46.763Z,25.84
2019-02-27T09:25:46.775Z,26.48
2019-02-27T09:26:46.766Z,26.47
2019-02-27T09:27:46.705Z,25.79
2019-02-27T09:28:46.795Z,25.64
2019-02-27T09:29:46.716Z,26.25
2019-02-27T09:30:46.722Z,26.27
2019-02-27T09:31:50.768Z,26.04
2019-02-27T09:32:46.790Z,26.22
2019-02-27T09:33:46.768Z,26.24
2019-02-27T09:34:46.745Z,26.17
2019-02-27T09:35:46.751Z,26.10
2019-02-27T09:36:46.718Z,25.97
2019-02-27T09:37:48.369Z,25.98
2019-02-27T09:38:46.745Z,25.59
2019-02-27T09:39:46.728Z,26.09
2019-02-27T09:40:46.725Z,26.21
2019-02-27T09:41:47.098Z,26.04
2019-02-27T09:42:46.769Z,25.79
2019-02-27T09:43:46.787Z,25.64
2019-02-27T09:44:46.747Z,26.27
2019-02-27T09:45:47.179Z,25.60
2019-02-27T09:46:46.734Z,26.14
2019-02-27T09:47:46.781Z,25.98
2019-02-27T09:48:46.818Z,25.96
2019-02-27T09:49:46.791Z,25.79
2019-02-27T09:50:48.395Z,26.20
2019-02-27T09:51:46.757Z,26.23
2019-02-27T09:52:46.767Z,25.89
2019-02-27T09:53:46.802Z,26.02
2019-02-27T09:54:46.973Z,26.00
2019-02-27T09:55:46.754Z,26.22
2019-02-27T09:56:46.738Z,25.72
2019-02-27T09:57:46.764Z,25.88
2019-02-27T09:58:46.765Z,26.11
2019-02-27T09:59:46.787Z,26.17
2019-02-27T10:00:46.799Z,25.67
2019-02-27T10:01:46.745Z,26.05
2019-02-27T10:02:47.045Z,25.94
2019-02-27T10:03:46.778Z,26.07
2019-02-27T10:04:46.754Z,26.46
2019-02-27T10:05:46.776Z,26.32
2019-02-27T10:06:46.779Z,25.61
2019-02-27T10:07:50.952Z,25.83
2019-02-27T10:08:46.847Z,25.58
2019-02-27T10:09:46.822Z,25.67
2019-02-27T10:10:46.765Z,25.94
2019-02-27T10:11:46.775Z,26.09
2019-02-27T10:12:46.770Z,25.90
2019-02-27T10:13:46.784Z,25.84
2019-02-27T10:14:47.878Z,26.17
2019-02-27T10:15:46.781Z,25.96
2019-02-27T10:16:46.805Z,25.96
2019-02-27T10:17:46.824Z,25.89
2019-02-27T10:18:46.818Z,25.92
2019-02-27T10:19:46.797Z,26.02
2019-02-27T10:20:46.788Z,26.29
2019-02-27T10:21:47.592Z,25.98
2019-02-27T10:22:46.855Z,26.02
2019-02-27T10:23:46.788Z,25.88
2019-02-27T10:24:46.799Z,25.44
2019-02-27T10:25:46.781Z,25.46
2019-02-27T10:26:46.776Z,25.56
2019-02-27T10:27:47.401Z,25.89
2019-02-27T10:28:46.829Z,25.98
2019-02-27T10:29:47.931Z,25.89
2019-02-27T10:30:46.960Z,25.55
2019-02-27T10:31:46.803Z,25.89
2019-02-27T10:32:46.833Z,25.95
2019-02-27T10:33:46.792Z,26.24
2019-02-27T10:34:46.794Z,25.46
2019-02-27T10:35:46.833Z,26.19
2019-02-27T10:36:47.699Z,25.79
2019-02-27T10:37:50.258Z,25.87
2019-02-27T10:38:46.790Z,25.88
2019-02-27T10:39:46.802Z,25.85
2019-02-27T10:40:46.872Z,26.04
2019-02-27T10:41:49.734Z,25.86
2019-02-27T10:42:46.850Z,26.01
2019-02-27T10:43:46.854Z,25.98
2019-02-27T10:44:46.812Z,26.28
2019-02-27T10:45:49.380Z,25.92
2019-02-27T10:46:46.806Z,26.20
2019-02-27T10:47:46.807Z,25.87
2019-02-27T10:48:47.537Z,25.84
2019-02-27T10:49:46.872Z,26.14
2019-02-27T10:50:46.808Z,25.68
2019-02-27T10:51:46.829Z,25.74
2019-02-27T10:52:46.825Z,25.80
2019-02-27T10:53:46.837Z,26.07
2019-02-27T10:54:46.810Z,26.18
2019-02-27T10:55:49.226Z,25.76
2019-02-27T10:56:46.860Z,25.62
2019-02-27T10:57:46.890Z,25.61
2019-02-27T10:58:47.611Z,25.74
2019-02-27T10:59:46.858Z,25.92
2019-02-27T11:00:46.829Z,25.74
2019-02-27T11:01:46.866Z,26.10
2019-02-27T11:02:47.926Z,25.52
2019-02-27T11:03:46.819Z,25.32
2019-02-27T11:04:46.833Z,25.77
2019-02-27T11:05:46.844Z,25.78
2019-02-27T11:06:46.875Z,25.69
2019-02-27T11:07:46.832Z,25.60
2019-02-27T11:08:46.822Z,25.48
2019-02-27T11:09:46.927Z,25.68
2019-02-27T11:10:46.843Z,25.62
2019-02-27T11:11:48.674Z,25.69
2019-02-27T11:12:46.910Z,25.21
2019-02-27T11:13:48.377Z,25.92
2019-02-27T11:14:46.841Z,26.02
2019-02-27T11:15:46.851Z,26.13
2019-02-27T11:16:46.882Z,25.83
2019-02-27T11:17:46.906Z,26.02
2019-02-27T11:18:46.843Z,25.48
2019-02-27T11:19:46.851Z,25.97
2019-02-27T11:20:46.841Z,25.52
2019-02-27T11:21:46.881Z,25.26
2019-02-27T11:22:46.856Z,25.47
2019-02-27T11:23:46.895Z,26.01
2019-02-27T11:24:49.177Z,25.46
2019-02-27T11:25:46.860Z,25.17
2019-02-27T11:26:46.848Z,25.60
2019-02-27T11:27:46.894Z,25.27
2019-02-27T11:28:47.718Z,25.39
2019-02-27T11:29:46.854Z,25.48
2019-02-27T11:30:46.867Z,25.15
2019-02-27T11:31:46.867Z,25.27
2019-02-27T11:32:46.852Z,25.58
2019-02-27T11:33:46.866Z,25.17
2019-02-27T11:34:48.409Z,25.46
2019-02-27T11:35:46.871Z,25.39
2019-02-27T11:36:46.920Z,25.47
2019-02-27T11:37:47.469Z,25.34
2019-02-27T11:38:46.946Z,25.69
2019-02-27T11:39:46.887Z,25.56
2019-02-27T11:40:46.918Z,25.92
2019-02-27T11:41:48.455Z,25.01
2019-02-27T11:42:46.923Z,25.55
2019-02-27T11:43:46.876Z,25.47
2019-02-27T11:44:49.384Z,25.45
2019-02-27T11:45:46.963Z,25.23
2019-02-27T11:46:57.747Z,25.44
2019-02-27T11:47:48.071Z,25.40
2019-02-27T11:48:46.929Z,25.84
2019-02-27T11:49:46.946Z,25.47
2019-02-27T11:50:46.889Z,25.79
2019-02-27T11:51:46.910Z,25.64
2019-02-27T11:52:49.044Z,25.55
2019-02-27T11:53:46.930Z,25.44
2019-02-27T11:54:46.938Z,25.28
2019-02-27T11:55:47.293Z,24.98
2019-02-27T11:56:46.912Z,25.35
2019-02-27T11:57:46.933Z,25.31
2019-02-27T11:58:46.890Z,25.54
2019-02-27T11:59:47.506Z,24.93
2019-02-27T12:00:46.932Z,24.87
2019-02-27T12:01:46.897Z,25.77
2019-02-27T12:02:46.898Z,25.74
2019-02-27T12:03:46.901Z,25.40
2019-02-27T12:04:46.927Z,25.31
2019-02-27T12:05:46.902Z,25.17
2019-02-27T12:06:46.929Z,24.83
2019-02-27T12:07:50.797Z,25.52
2019-02-27T12:08:46.925Z,25.12
2019-02-27T12:09:46.911Z,25.32
2019-02-27T12:10:46.911Z,25.17
2019-02-27T12:11:48.671Z,24.97
2019-02-27T12:12:46.901Z,25.19
2019-02-27T12:13:46.915Z,25.05
2019-02-27T12:14:46.945Z,25.09
2019-02-27T12:15:46.952Z,25.22
2019-02-27T12:16:48.611Z,24.71
2019-02-27T12:17:47.073Z,25.55
2019-02-27T12:18:46.910Z,25.17
2019-02-27T12:19:46.948Z,25.08
2019-02-27T12:20:46.924Z,24.89
2019-02-27T12:21:46.919Z,24.92
2019-02-27T12:22:46.958Z,24.67
2019-02-27T12:23:46.926Z,25.04
2019-02-27T12:24:46.924Z,25.28
2019-02-27T12:25:46.940Z,25.02
2019-02-27T12:26:46.934Z,25.02
2019-02-27T12:27:49.515Z,25.60
2019-02-27T12:28:47.551Z,25.18
2019-02-27T12:29:46.946Z,24.85
2019-02-27T12:30:46.957Z,25.08
2019-02-27T12:31:48.305Z,25.02
2019-02-27T12:32:46.939Z,25.10
2019-02-27T12:33:46.946Z,25.03
2019-02-27T12:34:46.950Z,25.31
2019-02-27T12:35:46.953Z,25.26
2019-02-27T12:36:46.963Z,25.16
2019-02-27T12:37:46.948Z,25.18
2019-02-27T12:38:46.940Z,25.59
2019-02-27T12:39:47.297Z,25.21
2019-02-27T12:40:47.041Z,25.54
2019-02-27T12:41:47.010Z,25.12
2019-02-27T12:42:46.946Z,24.94
2019-02-27T12:43:52.170Z,24.76
2019-02-27T12:44:46.954Z,25.43
2019-02-27T12:45:46.948Z,25.16
2019-02-27T12:46:46.948Z,25.22
2019-02-27T12:47:47.002Z,24.76
2019-02-27T12:48:47.092Z,25.20
2019-02-27T12:49:46.957Z,25.31
2019-02-27T12:50:47.023Z,25.26
2019-02-27T12:51:46.990Z,25.53
2019-02-27T12:52:48.082Z,25.42